Time;durP1;ratioP1;P1;durP2;ratioP2;P2;SDS_P1;SDS_P2;PMS_P1;PMS_P2;Temp;Humidity;BMP_temperature;BMP_pressure;BME280_temperature;BME280_humidity;BME280_pressure;Samples;Min_cycle;Max_cycle;Signal;HPM_P1;HPM_P2
2023/04/11 00:01:33;;;;;;;10.50;3.65;;;;;;;;;;5053471;28;20024;-69
2023/04/11 00:04:00;;;;;;;8.10;3.53;;;;;;;;;;5053260;28;20025;-69
2023/04/11 00:06:27;;;;;;;5.85;3.28;;;;;;;;;;5052707;28;20028;-69
2023/04/11 00:08:53;;;;;;;10.30;3.22;;;;;;;;;;5053133;28;20079;-68
2023/04/11 00:11:19;;;;;;;8.15;3.35;;;;;;;;;;5052058;28;20039;-69
2023/04/11 00:13:47;;;;;;;12.95;3.60;;;;;;;;;;5052499;28;20024;-69
2023/04/11 00:16:15;;;;;;;8.02;3.42;;;;;;;;;;5051798;28;20036;-69
2023/04/11 00:18:43;;;;;;;10.93;3.20;;;;;;;;;;5052489;28;20025;-68
2023/04/11 00:21:09;;;;;;;9.00;2.80;;;;;;;;;;5052844;28;20021;-69
2023/04/11 00:23:36;;;;;;;8.15;2.80;;;;;;;;;;5052947;28;20367;-68
2023/04/11 00:26:02;;;;;;;6.13;3.17;;;;;;;;;;5053301;28;20035;-68
2023/04/11 00:28:29;;;;;;;12.75;3.08;;;;;;;;;;5052611;28;20029;-69
2023/04/11 00:30:55;;;;;;;7.00;2.85;;;;;;;;;;5052614;28;20048;-69
2023/04/11 00:33:21;;;;;;;8.35;3.00;;;;;;;;;;5052553;28;20492;-68
2023/04/11 00:35:48;;;;;;;9.43;3.55;;;;;;;;;;5052588;28;20027;-69
2023/04/11 00:38:15;;;;;;;8.90;3.15;;;;;;;;;;5052571;28;20042;-68
2023/04/11 00:40:44;;;;;;;11.77;3.13;;;;;;;;;;5052676;28;20021;-68
2023/04/11 00:43:10;;;;;;;7.00;2.97;;;;;;;;;;5052322;28;20023;-69
2023/04/11 00:45:36;;;;;;;3.50;2.35;;;;;;;;;;5052200;28;20025;-68
2023/04/11 00:48:03;;;;;;;5.72;2.60;;;;;;;;;;5052226;28;20025;-68
2023/04/11 00:50:29;;;;;;;7.45;2.90;;;;;;;;;;5052390;28;20020;-68
2023/04/11 00:52:56;;;;;;;6.25;2.65;;;;;;;;;;5052257;28;20090;-68
2023/04/11 00:55:22;;;;;;;7.38;2.90;;;;;;;;;;5051776;28;20033;-68
2023/04/11 00:57:51;;;;;;;8.40;2.55;;;;;;;;;;5051815;28;20028;-68
2023/04/11 01:00:18;;;;;;;9.30;2.90;;;;;;;;;;5052312;28;20146;-69
2023/04/11 01:02:45;;;;;;;6.25;2.78;;;;;;;;;;5052267;28;20040;-69
2023/04/11 01:05:15;;;;;;;7.88;2.72;;;;;;;;;;5052154;28;20393;-68
2023/04/11 01:07:43;;;;;;;5.25;2.58;;;;;;;;;;5052306;28;20028;-67
2023/04/11 01:10:10;;;;;;;5.95;2.53;;;;;;;;;;5052016;28;20029;-68
2023/04/11 01:12:37;;;;;;;6.13;2.50;;;;;;;;;;5051461;28;20525;-69
2023/04/11 01:15:03;;;;;;;7.10;2.78;;;;;;;;;;5051799;28;20020;-68
2023/04/11 01:17:31;;;;;;;6.45;2.63;;;;;;;;;;5052200;28;20033;-68
2023/04/11 01:19:57;;;;;;;8.20;2.88;;;;;;;;;;5051899;28;20363;-68
2023/04/11 01:22:24;;;;;;;8.15;2.70;;;;;;;;;;5051689;28;20028;-69
2023/04/11 01:24:50;;;;;;;5.15;2.75;;;;;;;;;;5052039;28;20029;-68
2023/04/11 01:27:17;;;;;;;7.85;2.83;;;;;;;;;;5055535;28;20512;-68
2023/04/11 01:29:44;;;;;;;5.57;2.50;;;;;;;;;;5055865;28;20037;-69
2023/04/11 01:32:10;;;;;;;8.18;2.30;;;;;;;;;;5056103;28;20037;-69
2023/04/11 01:34:40;;;;;;;7.03;2.20;;;;;;;;;;5055856;28;20385;-69
2023/04/11 01:37:06;;;;;;;7.15;1.75;;;;;;;;;;5055573;28;20013;-69
2023/04/11 01:39:33;;;;;;;4.60;1.95;;;;;;;;;;5055825;28;20031;-68
2023/04/11 01:42:00;;;;;;;5.55;1.83;;;;;;;;;;5055866;28;20025;-68
2023/04/11 01:44:26;;;;;;;3.20;1.42;;;;;;;;;;5055565;28;20469;-68
2023/04/11 01:46:53;;;;;;;3.72;1.50;;;;;;;;;;5055490;28;20027;-68
2023/04/11 01:49:20;;;;;;;3.38;1.30;;;;;;;;;;5055366;28;20033;-68
2023/04/11 01:51:46;;;;;;;5.35;1.73;;;;;;;;;;5055582;28;20036;-68
2023/04/11 01:54:13;;;;;;;11.68;1.42;;;;;;;;;;5055270;28;20021;-69
2023/04/11 01:56:39;;;;;;;3.53;1.33;;;;;;;;;;5055622;28;20029;-68
2023/04/11 01:59:05;;;;;;;5.00;1.45;;;;;;;;;;5055148;28;20444;-68
2023/04/11 02:01:32;;;;;;;9.35;1.45;;;;;;;;;;5055596;28;20033;-69
2023/04/11 02:03:59;;;;;;;4.63;1.00;;;;;;;;;;5055243;28;20029;-69
2023/04/11 02:06:26;;;;;;;5.07;1.40;;;;;;;;;;5055063;28;20037;-69
2023/04/11 02:08:53;;;;;;;5.10;1.40;;;;;;;;;;5054910;28;20021;-68
2023/04/11 02:11:19;;;;;;;6.80;1.55;;;;;;;;;;5054921;28;20489;-68
2023/04/11 02:13:45;;;;;;;7.25;1.60;;;;;;;;;;5055294;28;20029;-69
2023/04/11 02:16:13;;;;;;;5.95;1.77;;;;;;;;;;5055419;28;20021;-68
2023/04/11 02:18:41;;;;;;;4.95;1.33;;;;;;;;;;5054964;28;20032;-68
2023/04/11 02:21:07;;;;;;;6.20;1.38;;;;;;;;;;5055262;28;20023;-68
2023/04/11 02:23:34;;;;;;;5.85;1.63;;;;;;;;;;5054713;28;20505;-69
2023/04/11 02:26:01;;;;;;;5.97;2.03;;;;;;;;;;5055606;28;20473;-68
2023/04/11 02:28:27;;;;;;;6.20;2.00;;;;;;;;;;5054698;28;20431;-68
2023/04/11 02:30:55;;;;;;;3.78;1.50;;;;;;;;;;5053359;28;20523;-69
2023/04/11 02:33:21;;;;;;;4.82;1.27;;;;;;;;;;5054803;28;20033;-68
2023/04/11 02:35:48;;;;;;;5.75;1.20;;;;;;;;;;5054659;28;20043;-69
2023/04/11 02:38:14;;;;;;;4.90;1.25;;;;;;;;;;5054765;28;20025;-68
2023/04/11 02:40:41;;;;;;;4.50;1.17;;;;;;;;;;5054877;28;20024;-69
2023/04/11 02:43:07;;;;;;;6.13;1.55;;;;;;;;;;5054606;28;20023;-68
2023/04/11 02:45:33;;;;;;;4.80;1.50;;;;;;;;;;5054695;28;20032;-69
2023/04/11 02:48:00;;;;;;;2.67;0.90;;;;;;;;;;5053594;28;20021;-68
2023/04/11 02:50:26;;;;;;;4.55;1.35;;;;;;;;;;5054698;28;20017;-68
2023/04/11 02:52:52;;;;;;;4.05;1.38;;;;;;;;;;5054165;28;20041;-69
2023/04/11 02:55:22;;;;;;;7.25;1.50;;;;;;;;;;5054548;28;20023;-69
2023/04/11 02:57:48;;;;;;;4.05;1.15;;;;;;;;;;5054580;28;20035;-68
2023/04/11 03:00:15;;;;;;;4.72;1.35;;;;;;;;;;5055105;28;20023;-68
2023/04/11 03:02:42;;;;;;;4.65;1.30;;;;;;;;;;5054823;28;20070;-68
2023/04/11 03:05:08;;;;;;;3.22;1.02;;;;;;;;;;5054179;28;20440;-68
2023/04/11 03:07:37;;;;;;;3.72;1.30;;;;;;;;;;5054416;28;20029;-69
2023/04/11 03:10:03;;;;;;;4.32;1.20;;;;;;;;;;5054438;28;20031;-69
2023/04/11 03:12:30;;;;;;;1.63;0.95;;;;;;;;;;5053916;28;20037;-68
2023/04/11 03:14:56;;;;;;;4.00;1.05;;;;;;;;;;5054103;28;20025;-69
2023/04/11 03:17:22;;;;;;;5.43;1.58;;;;;;;;;;5053960;28;20025;-68
2023/04/11 03:19:49;;;;;;;3.47;1.30;;;;;;;;;;5053950;28;20025;-68
2023/04/11 03:22:16;;;;;;;5.30;1.23;;;;;;;;;;5052487;28;20029;-68
2023/04/11 03:24:42;;;;;;;4.22;1.20;;;;;;;;;;5053565;28;20385;-68
2023/04/11 03:27:08;;;;;;;4.47;1.20;;;;;;;;;;5053732;28;20036;-69
2023/04/11 03:29:35;;;;;;;4.47;1.20;;;;;;;;;;5053996;28;20021;-68
2023/04/11 03:32:01;;;;;;;3.30;1.25;;;;;;;;;;5053685;28;20520;-68
2023/04/11 03:34:28;;;;;;;5.93;1.20;;;;;;;;;;5053386;28;20039;-69
2023/04/11 03:36:54;;;;;;;2.75;1.08;;;;;;;;;;5053351;28;20033;-68
2023/04/11 03:39:20;;;;;;;4.05;1.80;;;;;;;;;;5053568;28;20037;-68
2023/04/11 03:41:47;;;;;;;4.88;1.45;;;;;;;;;;5053341;28;20041;-68
2023/04/11 03:44:13;;;;;;;4.25;1.30;;;;;;;;;;5053783;28;20025;-69
2023/04/11 03:46:40;;;;;;;6.07;1.63;;;;;;;;;;5053166;28;20031;-68
2023/04/11 03:49:06;;;;;;;3.50;1.35;;;;;;;;;;5053063;28;20031;-69
2023/04/11 03:51:32;;;;;;;4.35;1.50;;;;;;;;;;5053110;28;20039;-69
2023/04/11 03:53:59;;;;;;;4.88;1.65;;;;;;;;;;5053531;28;20025;-69
2023/04/11 03:56:25;;;;;;;3.75;1.50;;;;;;;;;;5052296;28;20029;-68
2023/04/11 03:58:52;;;;;;;4.13;1.60;;;;;;;;;;5053487;28;20504;-68
2023/04/11 04:01:18;;;;;;;4.78;1.50;;;;;;;;;;5053204;28;20051;-68
2023/04/11 04:03:44;;;;;;;8.13;1.85;;;;;;;;;;5052990;28;20496;-68
2023/04/11 04:06:10;;;;;;;3.42;1.70;;;;;;;;;;5052840;28;20029;-68
2023/04/11 04:08:37;;;;;;;2.38;1.30;;;;;;;;;;5053123;28;20021;-68
2023/04/11 04:11:03;;;;;;;3.58;1.60;;;;;;;;;;5052773;28;20021;-68
2023/04/11 04:13:29;;;;;;;4.05;1.63;;;;;;;;;;5052979;28;20469;-68
2023/04/11 04:15:57;;;;;;;3.45;1.63;;;;;;;;;;5052864;28;20459;-68
2023/04/11 04:18:23;;;;;;;5.53;1.52;;;;;;;;;;5052948;28;20495;-69
2023/04/11 04:20:49;;;;;;;2.70;1.35;;;;;;;;;;5052530;28;20033;-68
2023/04/11 04:23:16;;;;;;;3.88;1.75;;;;;;;;;;5052442;28;20021;-68
2023/04/11 04:25:52;;;;;;;3.13;1.48;;;;;;;;;;5052809;28;20409;-68
2023/04/11 04:28:21;;;;;;;6.05;1.60;;;;;;;;;;5052740;28;20029;-68
2023/04/11 04:30:52;;;;;;;3.88;1.50;;;;;;;;;;5052392;28;20055;-69
2023/04/11 04:33:22;;;;;;;4.43;1.25;;;;;;;;;;5052429;28;20047;-69
2023/04/11 04:35:50;;;;;;;1.92;1.00;;;;;;;;;;5052277;28;20025;-68
2023/04/11 04:38:16;;;;;;;3.13;1.10;;;;;;;;;;5052679;28;20031;-68
2023/04/11 04:40:43;;;;;;;3.08;1.40;;;;;;;;;;5052282;28;20017;-69
2023/04/11 04:43:18;;;;;;;2.83;1.05;;;;;;;;;;5052490;28;20025;-68
2023/04/11 04:45:44;;;;;;;3.67;1.30;;;;;;;;;;5052412;28;20367;-68
2023/04/11 04:48:13;;;;;;;3.95;1.25;;;;;;;;;;5052358;28;20087;-69
2023/04/11 04:50:40;;;;;;;2.63;1.35;;;;;;;;;;5052489;28;20025;-68
2023/04/11 04:53:06;;;;;;;1.73;1.27;;;;;;;;;;5052211;28;20554;-68
2023/04/11 04:55:33;;;;;;;3.42;1.17;;;;;;;;;;5052817;28;20033;-69
2023/04/11 04:57:59;;;;;;;1.73;1.20;;;;;;;;;;5052026;28;20025;-68
2023/04/11 05:00:26;;;;;;;2.05;1.00;;;;;;;;;;5051048;28;20037;-68
2023/04/11 05:02:55;;;;;;;2.63;1.50;;;;;;;;;;5052220;28;20033;-68
2023/04/11 05:05:21;;;;;;;2.13;1.08;;;;;;;;;;5052114;28;20480;-69
2023/04/11 05:07:48;;;;;;;3.90;1.23;;;;;;;;;;5052328;28;20036;-69
2023/04/11 05:10:14;;;;;;;2.25;1.13;;;;;;;;;;5052782;28;20025;-67
2023/04/11 05:12:41;;;;;;;1.42;1.17;;;;;;;;;;5051859;28;20525;-68
2023/04/11 05:15:10;;;;;;;3.17;1.08;;;;;;;;;;5052637;28;20075;-68
2023/04/11 05:17:37;;;;;;;1.38;0.90;;;;;;;;;;5051905;28;20041;-68
2023/04/11 05:20:07;;;;;;;2.33;1.10;;;;;;;;;;5051910;28;20021;-68
2023/04/11 05:22:35;;;;;;;2.25;1.10;;;;;;;;;;5052026;28;20031;-69
2023/04/11 05:25:01;;;;;;;2.53;1.08;;;;;;;;;;5051862;28;20498;-69
2023/04/11 05:27:28;;;;;;;1.42;0.90;;;;;;;;;;5051816;28;20037;-68
2023/04/11 05:29:54;;;;;;;2.53;1.13;;;;;;;;;;5052003;28;20037;-68
2023/04/11 05:32:20;;;;;;;2.90;1.00;;;;;;;;;;5051429;28;20037;-68
2023/04/11 05:34:51;;;;;;;2.25;0.90;;;;;;;;;;5051672;28;20025;-68
2023/04/11 05:37:17;;;;;;;3.08;1.00;;;;;;;;;;5051873;28;20375;-68
2023/04/11 05:39:44;;;;;;;2.10;0.80;;;;;;;;;;5051703;28;20500;-69
2023/04/11 05:42:10;;;;;;;1.50;0.85;;;;;;;;;;5051995;28;20025;-69
2023/04/11 05:44:38;;;;;;;1.08;0.95;;;;;;;;;;5052155;28;20025;-68
2023/04/11 05:47:05;;;;;;;2.05;1.20;;;;;;;;;;5051459;28;20021;-69
2023/04/11 05:49:31;;;;;;;1.30;0.90;;;;;;;;;;5051948;28;20431;-69
2023/04/11 05:51:57;;;;;;;3.00;0.98;;;;;;;;;;5050820;28;20044;-68
2023/04/11 05:54:41;;;;;;;0.80;0.80;;;;;;;;;;5052103;28;20440;-69
2023/04/11 05:57:08;;;;;;;1.23;1.00;;;;;;;;;;5052301;28;20025;-68
2023/04/11 05:59:35;;;;;;;2.75;1.23;;;;;;;;;;5051815;28;20041;-69
2023/04/11 06:02:01;;;;;;;1.60;1.10;;;;;;;;;;5051644;28;20020;-68
2023/04/11 06:04:27;;;;;;;2.03;1.00;;;;;;;;;;5051604;28;20401;-68
2023/04/11 06:06:54;;;;;;;1.98;1.20;;;;;;;;;;5051734;28;20017;-68
2023/04/11 06:09:20;;;;;;;8.18;1.45;;;;;;;;;;5051339;28;20040;-68
2023/04/11 06:11:46;;;;;;;4.78;1.20;;;;;;;;;;5050159;28;20033;-69
2023/04/11 06:14:13;;;;;;;6.07;1.42;;;;;;;;;;5052481;28;20054;-68
2023/04/11 06:16:40;;;;;;;2.92;1.40;;;;;;;;;;5052060;28;20044;-69
2023/04/11 06:19:06;;;;;;;2.63;1.15;;;;;;;;;;5054880;28;20546;-69
2023/04/11 06:21:32;;;;;;;2.75;1.20;;;;;;;;;;5054938;28;20033;-68
2023/04/11 06:24:04;;;;;;;5.18;1.40;;;;;;;;;;5054192;28;20017;-69
2023/04/11 06:26:31;;;;;;;3.15;1.65;;;;;;;;;;5054716;28;20032;-69
2023/04/11 06:28:57;;;;;;;4.68;1.30;;;;;;;;;;5051205;28;20033;-68
2023/04/11 06:31:23;;;;;;;3.22;1.40;;;;;;;;;;5053474;28;20055;-69
2023/04/11 06:33:50;;;;;;;2.78;1.10;;;;;;;;;;5049884;28;20027;-69
2023/04/11 06:36:17;;;;;;;4.93;1.35;;;;;;;;;;5042737;28;20025;-68
2023/04/11 06:38:43;;;;;;;7.25;1.17;;;;;;;;;;5044526;28;20381;-69
2023/04/11 06:41:10;;;;;;;2.63;1.33;;;;;;;;;;5053693;28;20029;-69
2023/04/11 06:43:36;;;;;;;6.72;1.40;;;;;;;;;;5053125;28;20021;-69
2023/04/11 06:46:02;;;;;;;4.15;1.20;;;;;;;;;;5053637;28;20021;-69
2023/04/11 06:48:29;;;;;;;4.32;1.33;;;;;;;;;;5052372;28;20035;-68
2023/04/11 06:50:56;;;;;;;3.80;1.50;;;;;;;;;;5045843;28;20028;-69
2023/04/11 06:53:23;;;;;;;4.03;1.20;;;;;;;;;;5051450;28;20587;-69
2023/04/11 06:55:49;;;;;;;3.08;1.17;;;;;;;;;;5063493;28;20033;-69
2023/04/11 06:58:16;;;;;;;7.95;1.85;;;;;;;;;;5053695;28;20036;-69
2023/04/11 07:00:42;;;;;;;4.57;2.22;;;;;;;;;;5054123;28;20074;-68
2023/04/11 07:03:08;;;;;;;5.15;2.17;;;;;;;;;;5030305;28;20028;-68
2023/04/11 07:05:35;;;;;;;4.65;2.10;;;;;;;;;;5028414;28;20088;-69
2023/04/11 07:08:01;;;;;;;5.40;1.70;;;;;;;;;;5047418;28;20703;-69
2023/04/11 07:10:28;;;;;;;7.93;1.88;;;;;;;;;;5051386;28;20033;-69
2023/04/11 07:12:54;;;;;;;4.53;1.70;;;;;;;;;;5048500;28;20037;-69
2023/04/11 07:15:22;;;;;;;2.90;1.35;;;;;;;;;;5043128;28;20031;-69
2023/04/11 07:17:48;;;;;;;3.70;1.20;;;;;;;;;;5050448;28;20039;-68
2023/04/11 07:20:15;;;;;;;3.58;1.20;;;;;;;;;;5052560;28;20405;-69
2023/04/11 07:22:42;;;;;;;6.85;1.50;;;;;;;;;;5051764;28;20043;-69
2023/04/11 07:25:09;;;;;;;5.40;1.40;;;;;;;;;;5042413;28;20410;-69
2023/04/11 07:27:35;;;;;;;5.13;1.40;;;;;;;;;;5052235;28;20025;-69
2023/04/11 07:30:02;;;;;;;2.55;1.52;;;;;;;;;;5052199;28;20045;-69
2023/04/11 07:32:29;;;;;;;4.00;1.38;;;;;;;;;;5052157;28;20058;-68
2023/04/11 07:34:55;;;;;;;6.50;1.88;;;;;;;;;;5051364;28;20025;-69
2023/04/11 07:37:22;;;;;;;2.42;1.40;;;;;;;;;;5052060;28;20051;-69
2023/04/11 07:39:48;;;;;;;4.18;1.73;;;;;;;;;;5052108;28;20021;-68
2023/04/11 07:42:15;;;;;;;6.18;1.38;;;;;;;;;;5052093;28;20029;-69
2023/04/11 07:44:41;;;;;;;5.30;1.30;;;;;;;;;;5046811;28;20021;-68
2023/04/11 07:47:07;;;;;;;3.55;1.67;;;;;;;;;;5052412;28;20029;-67
2023/04/11 07:49:33;;;;;;;2.42;1.30;;;;;;;;;;5052674;28;20037;-67
2023/04/11 07:52:00;;;;;;;3.55;1.77;;;;;;;;;;5051686;28;20025;-69
2023/04/11 07:54:27;;;;;;;4.07;1.50;;;;;;;;;;5051030;28;20021;-69
2023/04/11 07:56:53;;;;;;;8.15;4.25;;;;;;;;;;5051846;28;20066;-69
2023/04/11 07:59:20;;;;;;;12.40;6.38;;;;;;;;;;5043628;28;20629;-69
2023/04/11 08:01:46;;;;;;;10.63;4.28;;;;;;;;;;5043605;28;20030;-69
2023/04/11 08:04:12;;;;;;;5.68;2.90;;;;;;;;;;5046575;28;20486;-69
2023/04/11 08:06:39;;;;;;;6.45;2.40;;;;;;;;;;5031586;28;20294;-69
2023/04/11 08:09:05;;;;;;;4.80;1.80;;;;;;;;;;5036389;28;20020;-69
2023/04/11 08:11:32;;;;;;;6.10;1.90;;;;;;;;;;5051451;28;20040;-69
2023/04/11 08:13:58;;;;;;;7.15;1.95;;;;;;;;;;5051579;28;20017;-69
2023/04/11 08:16:25;;;;;;;5.05;1.23;;;;;;;;;;5051017;28;20025;-70
2023/04/11 08:18:51;;;;;;;6.93;1.67;;;;;;;;;;5050490;28;20028;-69
2023/04/11 08:21:17;;;;;;;32.42;2.50;;;;;;;;;;5052327;28;20029;-69
2023/04/11 08:23:44;;;;;;;47.63;3.25;;;;;;;;;;5051075;28;20029;-69
2023/04/11 08:26:11;;;;;;;36.53;2.70;;;;;;;;;;5050713;28;20033;-69
2023/04/11 08:28:38;;;;;;;29.15;2.22;;;;;;;;;;5051379;28;20027;-69
2023/04/11 08:31:04;;;;;;;20.95;1.80;;;;;;;;;;5050609;28;20060;-69
2023/04/11 08:33:31;;;;;;;27.35;2.20;;;;;;;;;;5051592;28;20041;-69
2023/04/11 08:35:57;;;;;;;6.47;1.40;;;;;;;;;;5051279;28;20024;-69
2023/04/11 08:38:23;;;;;;;6.88;1.45;;;;;;;;;;5051393;28;20033;-69
2023/04/11 08:40:50;;;;;;;6.97;1.50;;;;;;;;;;5050686;28;20490;-69
2023/04/11 08:43:16;;;;;;;8.23;1.50;;;;;;;;;;5051859;28;20051;-69
2023/04/11 08:45:42;;;;;;;3.88;1.30;;;;;;;;;;5053315;28;20512;-69
2023/04/11 08:48:11;;;;;;;4.30;1.35;;;;;;;;;;5054522;28;20029;-69
2023/04/11 08:50:39;;;;;;;5.15;1.45;;;;;;;;;;5051095;28;20029;-68
2023/04/11 08:53:07;;;;;;;7.00;1.40;;;;;;;;;;5051000;28;20031;-69
2023/04/11 08:55:33;;;;;;;3.00;1.00;;;;;;;;;;5083178;28;20029;-68
2023/04/11 08:58:01;;;;;;;5.10;1.25;;;;;;;;;;5048974;28;20037;-69
2023/04/11 09:00:31;;;;;;;7.07;1.40;;;;;;;;;;5050083;28;20031;-69
2023/04/11 09:02:57;;;;;;;2.53;1.33;;;;;;;;;;5050601;28;20033;-69
2023/04/11 09:05:24;;;;;;;6.03;1.60;;;;;;;;;;5050839;28;20118;-69
2023/04/11 09:07:51;;;;;;;5.43;1.27;;;;;;;;;;5051665;28;20021;-69
2023/04/11 09:10:18;;;;;;;4.38;1.33;;;;;;;;;;5050838;28;20452;-69
2023/04/11 09:12:45;;;;;;;3.45;1.17;;;;;;;;;;5050365;28;20033;-69
2023/04/11 09:15:22;;;;;;;5.07;1.33;;;;;;;;;;5049698;28;20447;-70
2023/04/11 09:17:48;;;;;;;5.50;1.60;;;;;;;;;;5050340;28;20031;-69
2023/04/11 09:20:25;;;;;;;5.95;1.65;;;;;;;;;;5051283;28;20021;-69
2023/04/11 09:22:52;;;;;;;6.30;1.60;;;;;;;;;;5050434;28;20027;-70
2023/04/11 09:25:19;;;;;;;7.95;1.55;;;;;;;;;;5048942;28;20029;-69
2023/04/11 09:27:46;;;;;;;5.28;1.10;;;;;;;;;;5050788;28;20029;-69
2023/04/11 09:30:19;;;;;;;4.53;1.25;;;;;;;;;;5038325;28;20048;-69
2023/04/11 09:32:47;;;;;;;6.80;1.50;;;;;;;;;;5034543;28;20045;-69
2023/04/11 09:35:14;;;;;;;5.05;1.25;;;;;;;;;;5045623;28;20352;-69
2023/04/11 09:37:47;;;;;;;6.40;1.30;;;;;;;;;;5041445;28;20566;-69
2023/04/11 09:40:15;;;;;;;5.30;1.48;;;;;;;;;;5042810;28;20023;-69
2023/04/11 09:42:42;;;;;;;6.45;1.30;;;;;;;;;;5042471;28;20051;-69
2023/04/11 09:45:21;;;;;;;4.10;1.20;;;;;;;;;;5032149;28;20424;-69
2023/04/11 09:47:50;;;;;;;3.85;1.38;;;;;;;;;;5052769;28;20044;-68
2023/04/11 09:50:17;;;;;;;3.90;1.40;;;;;;;;;;5054237;28;20028;-69
2023/04/11 09:52:43;;;;;;;7.65;1.30;;;;;;;;;;5052922;28;20031;-69
2023/04/11 09:55:11;;;;;;;5.03;1.45;;;;;;;;;;5048445;28;20022;-69
2023/04/11 09:57:44;;;;;;;5.55;1.30;;;;;;;;;;5046683;28;20024;-69
2023/04/11 10:00:15;;;;;;;4.40;1.30;;;;;;;;;;5052048;28;20027;-69
2023/04/11 10:02:43;;;;;;;8.68;1.38;;;;;;;;;;5052319;28;20025;-69
2023/04/11 10:05:11;;;;;;;5.10;1.52;;;;;;;;;;5051532;28;20027;-69
2023/04/11 10:07:47;;;;;;;4.57;1.27;;;;;;;;;;5033260;28;20379;-69
2023/04/11 10:10:21;;;;;;;5.03;1.30;;;;;;;;;;5033838;28;20029;-69
2023/04/11 10:12:48;;;;;;;3.63;1.30;;;;;;;;;;5033602;28;20074;-70
2023/04/11 10:15:14;;;;;;;4.75;1.20;;;;;;;;;;5033544;28;20028;-69
2023/04/11 10:17:41;;;;;;;5.53;1.63;;;;;;;;;;5034931;28;20033;-69
2023/04/11 10:20:26;;;;;;;3.65;1.10;;;;;;;;;;5053668;28;20043;-69
2023/04/11 10:22:59;;;;;;;3.65;1.40;;;;;;;;;;5053249;28;20474;-69
2023/04/11 10:25:26;;;;;;;4.55;1.35;;;;;;;;;;5053291;28;20401;-69
2023/04/11 10:28:00;;;;;;;5.45;1.50;;;;;;;;;;5053419;28;20508;-69
2023/04/11 10:30:41;;;;;;;2.85;1.20;;;;;;;;;;5052397;28;20057;-69
2023/04/11 10:33:17;;;;;;;4.90;1.60;;;;;;;;;;5052870;28;20045;-69
2023/04/11 10:36:01;;;;;;;4.70;1.60;;;;;;;;;;5052605;28;20036;-70
2023/04/11 10:38:40;;;;;;;4.70;1.45;;;;;;;;;;5053014;28;20029;-69
2023/04/11 10:41:33;;;;;;;8.50;1.65;;;;;;;;;;5053099;28;20497;-69
2023/04/11 10:44:23;;;;;;;5.45;2.00;;;;;;;;;;5052051;28;20041;-69
2023/04/11 10:46:53;;;;;;;5.45;1.60;;;;;;;;;;5053527;28;20021;-69
2023/04/11 10:49:20;;;;;;;;;;;;;;;;;;5053903;28;20039;-69
2023/04/11 10:51:47;;;;;;;3.22;1.23;;;;;;;;;;5052679;28;20411;-69
2023/04/11 10:54:24;;;;;;;5.45;2.00;;;;;;;;;;5053161;28;20024;-69
2023/04/11 10:56:51;;;;;;;4.25;1.27;;;;;;;;;;5052755;28;20020;-69
2023/04/11 10:59:33;;;;;;;6.93;1.65;;;;;;;;;;5050410;28;20137;-69
2023/04/11 11:02:00;;;;;;;5.07;1.48;;;;;;;;;;5052330;28;20025;-69
2023/04/11 11:04:33;;;;;;;4.07;1.52;;;;;;;;;;5052188;28;20397;-69
2023/04/11 11:07:00;;;;;;;8.68;1.38;;;;;;;;;;5051504;28;20029;-69
2023/04/11 11:09:27;;;;;;;5.18;1.45;;;;;;;;;;5052398;28;20385;-68
2023/04/11 11:12:13;;;;;;;4.32;1.35;;;;;;;;;;5052344;28;20473;-69
2023/04/11 11:14:41;;;;;;;3.05;1.35;;;;;;;;;;5049738;28;20029;-69
2023/04/11 11:17:08;;;;;;;2.83;1.10;;;;;;;;;;5054952;28;20043;-69
2023/04/11 11:19:35;;;;;;;2.38;1.20;;;;;;;;;;5052242;28;20393;-68
2023/04/11 11:22:05;;;;;;;5.53;1.85;;;;;;;;;;5052495;28;20033;-69
2023/04/11 11:24:31;;;;;;;2.65;1.20;;;;;;;;;;5052560;28;20028;-69
2023/04/11 11:26:58;;;;;;;3.55;1.20;;;;;;;;;;5050102;28;20036;-69
2023/04/11 11:29:31;;;;;;;5.50;1.83;;;;;;;;;;5051703;28;20028;-69
2023/04/11 11:31:58;;;;;;;6.05;1.60;;;;;;;;;;5051950;28;20493;-69
2023/04/11 11:34:28;;;;;;;5.03;1.90;;;;;;;;;;5050623;28;20029;-69
2023/04/11 11:36:57;;;;;;;4.32;1.55;;;;;;;;;;5052235;28;20025;-69
2023/04/11 11:39:24;;;;;;;6.53;1.73;;;;;;;;;;5041195;28;20505;-69
2023/04/11 11:41:52;;;;;;;4.10;1.30;;;;;;;;;;5042772;28;20033;-69
2023/04/11 11:44:25;;;;;;;6.28;1.80;;;;;;;;;;5042648;28;20074;-68
2023/04/11 11:47:08;;;;;;;2.67;1.40;;;;;;;;;;5046268;28;20383;-69
2023/04/11 11:49:44;;;;;;;3.92;1.85;;;;;;;;;;5051493;28;20021;-69
2023/04/11 11:52:10;;;;;;;3.33;1.30;;;;;;;;;;5051502;28;20844;-69
2023/04/11 11:54:44;;;;;;;4.22;1.40;;;;;;;;;;5047327;28;20516;-69
2023/04/11 11:57:11;;;;;;;4.57;1.58;;;;;;;;;;5050909;28;20379;-68
2023/04/11 11:59:37;;;;;;;4.32;1.50;;;;;;;;;;5048344;28;20035;-68
2023/04/11 12:02:03;;;;;;;5.85;1.70;;;;;;;;;;5050500;28;20021;-69
2023/04/11 12:04:31;;;;;;;4.63;1.58;;;;;;;;;;5051044;28;20020;-68
2023/04/11 12:06:57;;;;;;;5.55;1.40;;;;;;;;;;5046318;28;20303;-67
2023/04/11 12:09:30;;;;;;;3.95;1.38;;;;;;;;;;5050234;28;20028;-69
2023/04/11 12:11:56;;;;;;;4.35;1.80;;;;;;;;;;5051465;28;20033;-67
2023/04/11 12:14:23;;;;;;;4.75;1.40;;;;;;;;;;5042117;28;20022;-67
2023/04/11 12:16:53;;;;;;;6.05;1.45;;;;;;;;;;5044105;28;20021;-69
2023/04/11 12:19:19;;;;;;;;;;;;;;;;;;5038527;28;21468;-68
2023/04/11 12:21:45;;;;;;;3.95;1.50;;;;;;;;;;5032811;28;19909;-69
2023/04/11 12:24:12;;;;;;;3.25;1.30;;;;;;;;;;5051527;28;20025;-69
2023/04/11 12:26:38;;;;;;;3.45;1.55;;;;;;;;;;5050403;28;20440;-69
2023/04/11 12:29:06;;;;;;;4.22;1.23;;;;;;;;;;5050246;28;20028;-69
2023/04/11 12:31:32;;;;;;;3.88;1.55;;;;;;;;;;5050651;28;20048;-69
2023/04/11 12:33:58;;;;;;;3.63;1.60;;;;;;;;;;5049843;28;20379;-69
2023/04/11 12:36:25;;;;;;;4.15;1.67;;;;;;;;;;5049956;28;20040;-72
2023/04/11 12:38:51;;;;;;;2.85;1.50;;;;;;;;;;5049013;28;20041;-67
2023/04/11 12:41:17;;;;;;;3.33;1.30;;;;;;;;;;5048232;28;20633;-68
2023/04/11 12:43:44;;;;;;;4.75;1.40;;;;;;;;;;5050197;28;20422;-69
2023/04/11 12:46:10;;;;;;;4.18;1.08;;;;;;;;;;5047326;28;20021;-68
2023/04/11 12:48:36;;;;;;;4.80;1.10;;;;;;;;;;5049364;28;20039;-70
2023/04/11 12:51:03;;;;;;;5.18;1.40;;;;;;;;;;5050540;28;20031;-69
2023/04/11 12:53:29;;;;;;;5.03;1.52;;;;;;;;;;5049548;28;20410;-69
2023/04/11 12:55:55;;;;;;;5.15;1.50;;;;;;;;;;5050926;28;20070;-69
2023/04/11 12:58:22;;;;;;;4.47;1.60;;;;;;;;;;5052034;28;20047;-67
2023/04/11 13:00:48;;;;;;;3.40;1.30;;;;;;;;;;5044656;28;20017;-70
2023/04/11 13:03:14;;;;;;;5.20;1.67;;;;;;;;;;5051282;28;20023;-69
2023/04/11 13:05:40;;;;;;;5.35;1.40;;;;;;;;;;5050597;28;20014;-68
2023/04/11 13:08:07;;;;;;;4.30;1.42;;;;;;;;;;5049996;28;20017;-68
2023/04/11 13:10:34;;;;;;;5.80;1.55;;;;;;;;;;5042724;28;20035;-67
2023/04/11 13:13:00;;;;;;;3.85;1.42;;;;;;;;;;5047909;28;20032;-68
2023/04/11 13:15:27;;;;;;;7.90;1.58;;;;;;;;;;5034063;28;20519;-68
2023/04/11 13:17:53;;;;;;;7.20;1.80;;;;;;;;;;5048488;28;20043;-67
2023/04/11 13:20:19;;;;;;;12.02;1.98;;;;;;;;;;5042829;28;20021;-67
2023/04/11 13:22:46;;;;;;;6.28;1.60;;;;;;;;;;5046064;28;20025;-67
2023/04/11 13:25:12;;;;;;;9.05;1.90;;;;;;;;;;5051774;28;20029;-69
2023/04/11 13:27:38;;;;;;;3.30;1.40;;;;;;;;;;5054970;28;20029;-68
2023/04/11 13:30:05;;;;;;;4.57;1.38;;;;;;;;;;5054756;28;20521;-68
2023/04/11 13:32:32;;;;;;;3.38;1.45;;;;;;;;;;5052655;28;20032;-68
2023/04/11 13:34:58;;;;;;;2.47;0.95;;;;;;;;;;5048040;28;20021;-69
2023/04/11 13:37:25;;;;;;;19.38;2.15;;;;;;;;;;5041350;28;20041;-68
2023/04/11 13:39:51;;;;;;;11.05;2.03;;;;;;;;;;5048405;28;20013;-70
2023/04/11 13:42:17;;;;;;;5.10;1.40;;;;;;;;;;5054915;28;20047;-69
2023/04/11 13:44:43;;;;;;;4.43;1.50;;;;;;;;;;5049826;28;20599;-70
2023/04/11 13:47:10;;;;;;;3.30;1.50;;;;;;;;;;5044217;28;20091;-69
2023/04/11 13:49:36;;;;;;;4.95;1.70;;;;;;;;;;5052083;28;20028;-71
2023/04/11 13:52:02;;;;;;;6.35;1.40;;;;;;;;;;5051331;28;20032;-69
2023/04/11 13:54:29;;;;;;;6.95;1.67;;;;;;;;;;5053084;28;20071;-69
2023/04/11 13:56:55;;;;;;;6.40;1.95;;;;;;;;;;5053991;28;20017;-68
2023/04/11 13:59:22;;;;;;;4.22;1.48;;;;;;;;;;5054447;28;20082;-67
2023/04/11 14:01:48;;;;;;;4.97;1.20;;;;;;;;;;5054893;28;20021;-68
2023/04/11 14:04:15;;;;;;;4.15;1.40;;;;;;;;;;5054847;28;20400;-70
2023/04/11 14:06:42;;;;;;;3.63;1.50;;;;;;;;;;5054993;28;20017;-67
2023/04/11 14:09:08;;;;;;;5.47;1.73;;;;;;;;;;5048600;28;20025;-69
2023/04/11 14:11:34;;;;;;;5.50;1.67;;;;;;;;;;5034949;28;20035;-69
2023/04/11 14:14:01;;;;;;;3.65;1.30;;;;;;;;;;5046146;28;20031;-67
2023/04/11 14:16:27;;;;;;;3.30;1.30;;;;;;;;;;5044238;28;20026;-68
2023/04/11 14:18:53;;;;;;;3.38;1.33;;;;;;;;;;5051924;28;20024;-67
2023/04/11 14:21:20;;;;;;;2.60;1.30;;;;;;;;;;5039761;28;20024;-67
2023/04/11 14:23:47;;;;;;;3.97;1.35;;;;;;;;;;5054155;28;20021;-68
2023/04/11 14:26:14;;;;;;;6.28;1.60;;;;;;;;;;5053917;28;20033;-67
2023/04/11 14:28:40;;;;;;;5.00;1.52;;;;;;;;;;5044817;28;20013;-69
2023/04/11 14:31:07;;;;;;;3.50;1.45;;;;;;;;;;5033945;28;20510;-69
2023/04/11 14:33:33;;;;;;;7.15;1.65;;;;;;;;;;5049179;28;20043;-67
2023/04/11 14:35:59;;;;;;;5.07;1.50;;;;;;;;;;5053890;28;20017;-68
2023/04/11 14:38:26;;;;;;;2.95;1.20;;;;;;;;;;5054033;28;20024;-69
2023/04/11 14:40:52;;;;;;;5.10;1.65;;;;;;;;;;5054578;28;20029;-72
2023/04/11 14:43:19;;;;;;;10.00;1.38;;;;;;;;;;5053076;28;20029;-73
2023/04/11 14:45:46;;;;;;;3.63;1.30;;;;;;;;;;5047311;28;20029;-70